sensor_id;sensor_type;location;lat;lon;timestamp;P1;durP1;ratioP1;P2;durP2;ratioP2
3667;SDS011;24099;47.102;15.440;2023-04-15T00:00:49;4.53;;;1.00;;
3667;SDS011;24099;47.102;15.440;2023-04-15T00:03:18;0.85;;;0.85;;
3667;SDS011;24099;47.102;15.440;2023-04-15T00:05:46;2.63;;;1.17;;
3667;SDS011;24099;47.102;15.440;2023-04-15T00:08:15;0.88;;;0.77;;
3667;SDS011;24099;47.102;15.440;2023-04-15T00:10:44;0.77;;;0.77;;
3667;SDS011;24099;47.102;15.440;2023-04-15T00:13:12;1.52;;;1.15;;
3667;SDS011;24099;47.102;15.440;2023-04-15T00:15:40;1.02;;;0.80;;
3667;SDS011;24099;47.102;15.440;2023-04-15T00:18:09;0.50;;;0.50;;
3667;SDS011;24099;47.102;15.440;2023-04-15T00:20:36;0.60;;;0.60;;
3667;SDS011;24099;47.102;15.440;2023-04-15T00:23:04;1.23;;;1.02;;
3667;SDS011;24099;47.102;15.440;2023-04-15T00:25:33;0.93;;;0.80;;
3667;SDS011;24099;47.102;15.440;2023-04-15T00:28:02;0.73;;;0.73;;
3667;SDS011;24099;47.102;15.440;2023-04-15T00:30:30;1.27;;;0.65;;
3667;SDS011;24099;47.102;15.440;2023-04-15T00:32:58;0.52;;;0.52;;
3667;SDS011;24099;47.102;15.440;2023-04-15T00:35:26;0.55;;;0.55;;
3667;SDS011;24099;47.102;15.440;2023-04-15T00:37:56;1.00;;;0.90;;
3667;SDS011;24099;47.102;15.440;2023-04-15T00:40:25;1.25;;;0.85;;
3667;SDS011;24099;47.102;15.440;2023-04-15T00:42:53;0.50;;;0.50;;
3667;SDS011;24099;47.102;15.440;2023-04-15T00:45:22;0.70;;;0.70;;
3667;SDS011;24099;47.102;15.440;2023-04-15T00:47:49;0.90;;;0.60;;
3667;SDS011;24099;47.102;15.440;2023-04-15T00:50:17;1.90;;;1.25;;
3667;SDS011;24099;47.102;15.440;2023-04-15T00:52:45;0.75;;;0.68;;
3667;SDS011;24099;47.102;15.440;2023-04-15T00:55:13;0.60;;;0.60;;
3667;SDS011;24099;47.102;15.440;2023-04-15T00:57:41;0.80;;;0.63;;
3667;SDS011;24099;47.102;15.440;2023-04-15T01:00:10;0.73;;;0.70;;
3667;SDS011;24099;47.102;15.440;2023-04-15T01:02:42;2.38;;;0.65;;
3667;SDS011;24099;47.102;15.440;2023-04-15T01:05:11;0.52;;;0.52;;
3667;SDS011;24099;47.102;15.440;2023-04-15T01:07:41;0.50;;;0.50;;
3667;SDS011;24099;47.102;15.440;2023-04-15T01:10:09;0.45;;;0.45;;
3667;SDS011;24099;47.102;15.440;2023-04-15T01:12:37;1.25;;;0.75;;
3667;SDS011;24099;47.102;15.440;2023-04-15T01:15:06;1.25;;;1.15;;
3667;SDS011;24099;47.102;15.440;2023-04-15T01:17:35;0.47;;;0.47;;
3667;SDS011;24099;47.102;15.440;2023-04-15T01:20:07;0.52;;;0.52;;
3667;SDS011;24099;47.102;15.440;2023-04-15T01:22:36;0.45;;;0.45;;
3667;SDS011;24099;47.102;15.440;2023-04-15T01:25:08;0.77;;;0.73;;
3667;SDS011;24099;47.102;15.440;2023-04-15T01:27:39;0.68;;;0.68;;
3667;SDS011;24099;47.102;15.440;2023-04-15T01:30:08;0.40;;;0.40;;
3667;SDS011;24099;47.102;15.440;2023-04-15T01:32:37;0.50;;;0.50;;
3667;SDS011;24099;47.102;15.440;2023-04-15T01:35:05;0.50;;;0.50;;
3667;SDS011;24099;47.102;15.440;2023-04-15T01:37:33;0.38;;;0.38;;
3667;SDS011;24099;47.102;15.440;2023-04-15T01:40:02;2.92;;;0.90;;
3667;SDS011;24099;47.102;15.440;2023-04-15T01:42:30;0.40;;;0.40;;
3667;SDS011;24099;47.102;15.440;2023-04-15T01:45:00;0.30;;;0.30;;
3667;SDS011;24099;47.102;15.440;2023-04-15T01:47:28;0.55;;;0.50;;
3667;SDS011;24099;47.102;15.440;2023-04-15T01:49:56;0.40;;;0.40;;
3667;SDS011;24099;47.102;15.440;2023-04-15T01:52:24;0.55;;;0.43;;
3667;SDS011;24099;47.102;15.440;2023-04-15T01:54:52;0.50;;;0.50;;
3667;SDS011;24099;47.102;15.440;2023-04-15T01:57:20;0.47;;;0.47;;
3667;SDS011;24099;47.102;15.440;2023-04-15T01:59:47;6.05;;;0.50;;
3667;SDS011;24099;47.102;15.440;2023-04-15T02:02:17;0.50;;;0.50;;
3667;SDS011;24099;47.102;15.440;2023-04-15T02:04:44;3.10;;;0.73;;
3667;SDS011;24099;47.102;15.440;2023-04-15T02:07:13;0.47;;;0.47;;
3667;SDS011;24099;47.102;15.440;2023-04-15T02:09:41;5.80;;;0.50;;
3667;SDS011;24099;47.102;15.440;2023-04-15T02:12:10;0.40;;;0.40;;
3667;SDS011;24099;47.102;15.440;2023-04-15T02:14:38;0.50;;;0.50;;
3667;SDS011;24099;47.102;15.440;2023-04-15T02:17:06;0.50;;;0.50;;
3667;SDS011;24099;47.102;15.440;2023-04-15T02:19:35;0.40;;;0.40;;
3667;SDS011;24099;47.102;15.440;2023-04-15T02:22:03;0.30;;;0.30;;
3667;SDS011;24099;47.102;15.440;2023-04-15T02:24:32;0.50;;;0.50;;
3667;SDS011;24099;47.102;15.440;2023-04-15T02:27:01;0.50;;;0.50;;
3667;SDS011;24099;47.102;15.440;2023-04-15T02:29:30;0.60;;;0.60;;
3667;SDS011;24099;47.102;15.440;2023-04-15T02:31:59;0.50;;;0.50;;
3667;SDS011;24099;47.102;15.440;2023-04-15T02:34:27;0.40;;;0.40;;
3667;SDS011;24099;47.102;15.440;2023-04-15T02:36:57;0.28;;;0.28;;
3667;SDS011;24099;47.102;15.440;2023-04-15T02:39:25;0.45;;;0.45;;
3667;SDS011;24099;47.102;15.440;2023-04-15T02:41:53;1.75;;;0.50;;
3667;SDS011;24099;47.102;15.440;2023-04-15T02:44:24;0.40;;;0.40;;
3667;SDS011;24099;47.102;15.440;2023-04-15T02:46:56;0.30;;;0.30;;
3667;SDS011;24099;47.102;15.440;2023-04-15T02:49:24;0.40;;;0.30;;
3667;SDS011;24099;47.102;15.440;2023-04-15T02:51:54;0.43;;;0.43;;
3667;SDS011;24099;47.102;15.440;2023-04-15T02:54:24;2.05;;;0.68;;
3667;SDS011;24099;47.102;15.440;2023-04-15T02:56:53;0.40;;;0.40;;
3667;SDS011;24099;47.102;15.440;2023-04-15T02:59:21;0.47;;;0.47;;
3667;SDS011;24099;47.102;15.440;2023-04-15T03:01:49;0.35;;;0.35;;
3667;SDS011;24099;47.102;15.440;2023-04-15T03:04:17;0.30;;;0.30;;
3667;SDS011;24099;47.102;15.440;2023-04-15T03:06:45;0.30;;;0.30;;
3667;SDS011;24099;47.102;15.440;2023-04-15T03:09:13;0.30;;;0.30;;
3667;SDS011;24099;47.102;15.440;2023-04-15T03:11:43;0.40;;;0.40;;
3667;SDS011;24099;47.102;15.440;2023-04-15T03:14:10;0.50;;;0.50;;
3667;SDS011;24099;47.102;15.440;2023-04-15T03:16:42;0.32;;;0.32;;
3667;SDS011;24099;47.102;15.440;2023-04-15T03:19:12;0.30;;;0.30;;
3667;SDS011;24099;47.102;15.440;2023-04-15T03:21:41;0.30;;;0.30;;
3667;SDS011;24099;47.102;15.440;2023-04-15T03:24:09;0.30;;;0.30;;
3667;SDS011;24099;47.102;15.440;2023-04-15T03:26:37;0.20;;;0.20;;
3667;SDS011;24099;47.102;15.440;2023-04-15T03:29:12;0.30;;;0.30;;
3667;SDS011;24099;47.102;15.440;2023-04-15T03:31:40;0.43;;;0.43;;
3667;SDS011;24099;47.102;15.440;2023-04-15T03:34:07;0.40;;;0.40;;
3667;SDS011;24099;47.102;15.440;2023-04-15T03:36:36;0.30;;;0.30;;
3667;SDS011;24099;47.102;15.440;2023-04-15T03:39:03;0.35;;;0.35;;
3667;SDS011;24099;47.102;15.440;2023-04-15T03:41:31;0.43;;;0.43;;
3667;SDS011;24099;47.102;15.440;2023-04-15T03:43:59;0.50;;;0.50;;
3667;SDS011;24099;47.102;15.440;2023-04-15T03:46:28;0.30;;;0.30;;
3667;SDS011;24099;47.102;15.440;2023-04-15T03:48:56;0.38;;;0.38;;
3667;SDS011;24099;47.102;15.440;2023-04-15T03:51:24;0.40;;;0.40;;
3667;SDS011;24099;47.102;15.440;2023-04-15T03:53:52;1.05;;;0.50;;
3667;SDS011;24099;47.102;15.440;2023-04-15T03:56:21;0.40;;;0.40;;
3667;SDS011;24099;47.102;15.440;2023-04-15T03:58:49;0.50;;;0.50;;
3667;SDS011;24099;47.102;15.440;2023-04-15T04:01:17;0.40;;;0.40;;
3667;SDS011;24099;47.102;15.440;2023-04-15T04:03:46;0.32;;;0.32;;
3667;SDS011;24099;47.102;15.440;2023-04-15T04:06:15;0.30;;;0.30;;
3667;SDS011;24099;47.102;15.440;2023-04-15T04:08:42;0.40;;;0.40;;
3667;SDS011;24099;47.102;15.440;2023-04-15T04:11:10;0.30;;;0.30;;
3667;SDS011;24099;47.102;15.440;2023-04-15T04:13:38;0.43;;;0.43;;
3667;SDS011;24099;47.102;15.440;2023-04-15T04:16:06;0.28;;;0.28;;
3667;SDS011;24099;47.102;15.440;2023-04-15T04:18:34;0.20;;;0.20;;
3667;SDS011;24099;47.102;15.440;2023-04-15T04:21:03;0.30;;;0.30;;
3667;SDS011;24099;47.102;15.440;2023-04-15T04:23:32;0.82;;;0.47;;
3667;SDS011;24099;47.102;15.440;2023-04-15T04:25:59;0.40;;;0.40;;
3667;SDS011;24099;47.102;15.440;2023-04-15T04:28:27;1.10;;;0.45;;
3667;SDS011;24099;47.102;15.440;2023-04-15T04:30:55;0.30;;;0.30;;
3667;SDS011;24099;47.102;15.440;2023-04-15T04:33:22;0.43;;;0.43;;
3667;SDS011;24099;47.102;15.440;2023-04-15T04:35:50;0.50;;;0.50;;
3667;SDS011;24099;47.102;15.440;2023-04-15T04:38:20;0.30;;;0.30;;
3667;SDS011;24099;47.102;15.440;2023-04-15T04:40:47;1.13;;;1.02;;
3667;SDS011;24099;47.102;15.440;2023-04-15T04:43:15;0.30;;;0.30;;
3667;SDS011;24099;47.102;15.440;2023-04-15T04:45:43;1.65;;;0.40;;
3667;SDS011;24099;47.102;15.440;2023-04-15T04:48:11;0.30;;;0.30;;
3667;SDS011;24099;47.102;15.440;2023-04-15T04:50:39;0.40;;;0.40;;
3667;SDS011;24099;47.102;15.440;2023-04-15T04:53:07;0.52;;;0.52;;
3667;SDS011;24099;47.102;15.440;2023-04-15T04:55:36;0.55;;;0.35;;
3667;SDS011;24099;47.102;15.440;2023-04-15T04:58:04;0.30;;;0.30;;
3667;SDS011;24099;47.102;15.440;2023-04-15T05:00:31;0.40;;;0.40;;
3667;SDS011;24099;47.102;15.440;2023-04-15T05:02:59;0.50;;;0.50;;
3667;SDS011;24099;47.102;15.440;2023-04-15T05:05:27;0.40;;;0.40;;
3667;SDS011;24099;47.102;15.440;2023-04-15T05:07:55;0.47;;;0.47;;
3667;SDS011;24099;47.102;15.440;2023-04-15T05:10:22;0.50;;;0.50;;
3667;SDS011;24099;47.102;15.440;2023-04-15T05:12:52;1.10;;;0.55;;
3667;SDS011;24099;47.102;15.440;2023-04-15T05:15:20;0.30;;;0.30;;
3667;SDS011;24099;47.102;15.440;2023-04-15T05:17:48;0.40;;;0.40;;
3667;SDS011;24099;47.102;15.440;2023-04-15T05:20:16;0.45;;;0.45;;
3667;SDS011;24099;47.102;15.440;2023-04-15T05:22:44;0.30;;;0.30;;
3667;SDS011;24099;47.102;15.440;2023-04-15T05:25:12;1.35;;;1.15;;
3667;SDS011;24099;47.102;15.440;2023-04-15T05:27:40;0.40;;;0.40;;
3667;SDS011;24099;47.102;15.440;2023-04-15T05:30:10;0.68;;;0.68;;
3667;SDS011;24099;47.102;15.440;2023-04-15T05:32:38;0.38;;;0.38;;
3667;SDS011;24099;47.102;15.440;2023-04-15T05:35:06;0.85;;;0.68;;
3667;SDS011;24099;47.102;15.440;2023-04-15T05:37:34;0.45;;;0.45;;
3667;SDS011;24099;47.102;15.440;2023-04-15T05:40:02;0.40;;;0.40;;
3667;SDS011;24099;47.102;15.440;2023-04-15T05:42:33;0.50;;;0.50;;
3667;SDS011;24099;47.102;15.440;2023-04-15T05:45:02;0.40;;;0.40;;
3667;SDS011;24099;47.102;15.440;2023-04-15T05:47:34;0.50;;;0.50;;
3667;SDS011;24099;47.102;15.440;2023-04-15T05:50:03;0.40;;;0.30;;
3667;SDS011;24099;47.102;15.440;2023-04-15T05:52:31;0.68;;;0.68;;
3667;SDS011;24099;47.102;15.440;2023-04-15T05:54:59;0.35;;;0.35;;
3667;SDS011;24099;47.102;15.440;2023-04-15T05:57:27;0.40;;;0.40;;
3667;SDS011;24099;47.102;15.440;2023-04-15T05:59:55;0.50;;;0.50;;
3667;SDS011;24099;47.102;15.440;2023-04-15T06:02:23;0.60;;;0.60;;
3667;SDS011;24099;47.102;15.440;2023-04-15T06:04:53;0.63;;;0.63;;
3667;SDS011;24099;47.102;15.440;2023-04-15T06:07:22;0.60;;;0.60;;
3667;SDS011;24099;47.102;15.440;2023-04-15T06:09:50;0.50;;;0.50;;
3667;SDS011;24099;47.102;15.440;2023-04-15T06:12:18;0.60;;;0.60;;
3667;SDS011;24099;47.102;15.440;2023-04-15T06:14:46;0.60;;;0.60;;
3667;SDS011;24099;47.102;15.440;2023-04-15T06:17:14;0.70;;;0.70;;
3667;SDS011;24099;47.102;15.440;2023-04-15T06:19:44;0.52;;;0.52;;
3667;SDS011;24099;47.102;15.440;2023-04-15T06:22:13;0.32;;;0.32;;
3667;SDS011;24099;47.102;15.440;2023-04-15T06:24:41;0.50;;;0.50;;
3667;SDS011;24099;47.102;15.440;2023-04-15T06:27:09;0.80;;;0.80;;
3667;SDS011;24099;47.102;15.440;2023-04-15T06:29:37;0.50;;;0.50;;
3667;SDS011;24099;47.102;15.440;2023-04-15T06:32:05;0.50;;;0.50;;
3667;SDS011;24099;47.102;15.440;2023-04-15T06:34:33;0.47;;;0.47;;
3667;SDS011;24099;47.102;15.440;2023-04-15T06:37:01;0.68;;;0.68;;
3667;SDS011;24099;47.102;15.440;2023-04-15T06:39:30;0.50;;;0.50;;
3667;SDS011;24099;47.102;15.440;2023-04-15T06:41:58;0.40;;;0.40;;
3667;SDS011;24099;47.102;15.440;2023-04-15T06:44:28;0.30;;;0.30;;
3667;SDS011;24099;47.102;15.440;2023-04-15T06:46:56;0.57;;;0.57;;
3667;SDS011;24099;47.102;15.440;2023-04-15T06:49:23;0.90;;;0.82;;
3667;SDS011;24099;47.102;15.440;2023-04-15T06:51:51;0.43;;;0.43;;
3667;SDS011;24099;47.102;15.440;2023-04-15T06:54:19;0.60;;;0.60;;
3667;SDS011;24099;47.102;15.440;2023-04-15T06:56:48;0.57;;;0.57;;
3667;SDS011;24099;47.102;15.440;2023-04-15T06:59:16;0.60;;;0.60;;
3667;SDS011;24099;47.102;15.440;2023-04-15T07:01:44;0.98;;;0.98;;
3667;SDS011;24099;47.102;15.440;2023-04-15T07:04:12;0.70;;;0.70;;
3667;SDS011;24099;47.102;15.440;2023-04-15T07:06:40;0.90;;;0.90;;
3667;SDS011;24099;47.102;15.440;2023-04-15T07:09:09;0.60;;;0.60;;
3667;SDS011;24099;47.102;15.440;2023-04-15T07:11:37;0.80;;;0.80;;
3667;SDS011;24099;47.102;15.440;2023-04-15T07:14:06;0.98;;;0.93;;
3667;SDS011;24099;47.102;15.440;2023-04-15T07:16:33;0.80;;;0.80;;
3667;SDS011;24099;47.102;15.440;2023-04-15T07:19:01;0.75;;;0.75;;
3667;SDS011;24099;47.102;15.440;2023-04-15T07:21:29;0.88;;;0.88;;
3667;SDS011;24099;47.102;15.440;2023-04-15T07:23:58;0.60;;;0.60;;
3667;SDS011;24099;47.102;15.440;2023-04-15T07:26:31;0.80;;;0.80;;
3667;SDS011;24099;47.102;15.440;2023-04-15T07:28:59;1.70;;;1.20;;
3667;SDS011;24099;47.102;15.440;2023-04-15T07:31:30;0.80;;;0.75;;
3667;SDS011;24099;47.102;15.440;2023-04-15T07:33:58;1.05;;;1.00;;
3667;SDS011;24099;47.102;15.440;2023-04-15T07:36:27;1.05;;;0.98;;
3667;SDS011;24099;47.102;15.440;2023-04-15T07:38:56;0.85;;;0.85;;
3667;SDS011;24099;47.102;15.440;2023-04-15T07:41:35;0.65;;;0.65;;
3667;SDS011;24099;47.102;15.440;2023-04-15T07:44:04;1.23;;;0.75;;
3667;SDS011;24099;47.102;15.440;2023-04-15T07:46:34;0.98;;;0.98;;
3667;SDS011;24099;47.102;15.440;2023-04-15T07:49:02;0.77;;;0.77;;
3667;SDS011;24099;47.102;15.440;2023-04-15T07:51:31;1.13;;;1.00;;
3667;SDS011;24099;47.102;15.440;2023-04-15T07:53:59;0.73;;;0.73;;
3667;SDS011;24099;47.102;15.440;2023-04-15T07:56:31;0.60;;;0.60;;
3667;SDS011;24099;47.102;15.440;2023-04-15T07:58:59;1.50;;;0.85;;
3667;SDS011;24099;47.102;15.440;2023-04-15T08:01:29;1.27;;;1.05;;
3667;SDS011;24099;47.102;15.440;2023-04-15T08:03:58;1.10;;;1.00;;
3667;SDS011;24099;47.102;15.440;2023-04-15T08:06:27;0.90;;;0.80;;
3667;SDS011;24099;47.102;15.440;2023-04-15T08:08:55;0.90;;;0.90;;
3667;SDS011;24099;47.102;15.440;2023-04-15T08:11:23;1.15;;;0.93;;
3667;SDS011;24099;47.102;15.440;2023-04-15T08:13:52;0.80;;;0.80;;
3667;SDS011;24099;47.102;15.440;2023-04-15T08:16:21;0.80;;;0.80;;
3667;SDS011;24099;47.102;15.440;2023-04-15T08:18:50;0.70;;;0.70;;
3667;SDS011;24099;47.102;15.440;2023-04-15T08:21:21;1.23;;;0.85;;
3667;SDS011;24099;47.102;15.440;2023-04-15T08:29:03;1.05;;;0.68;;
3667;SDS011;24099;47.102;15.440;2023-04-15T08:31:32;0.75;;;0.75;;
3667;SDS011;24099;47.102;15.440;2023-04-15T08:34:08;0.60;;;0.60;;
3667;SDS011;24099;47.102;15.440;2023-04-15T08:36:39;0.50;;;0.50;;
3667;SDS011;24099;47.102;15.440;2023-04-15T08:39:08;1.33;;;0.50;;
3667;SDS011;24099;47.102;15.440;2023-04-15T08:41:38;0.85;;;0.80;;
3667;SDS011;24099;47.102;15.440;2023-04-15T08:44:12;1.30;;;0.90;;
3667;SDS011;24099;47.102;15.440;2023-04-15T08:46:40;0.73;;;0.73;;
3667;SDS011;24099;47.102;15.440;2023-04-15T08:49:09;0.55;;;0.55;;
3667;SDS011;24099;47.102;15.440;2023-04-15T08:51:39;0.60;;;0.60;;
3667;SDS011;24099;47.102;15.440;2023-04-15T08:54:07;0.70;;;0.70;;
3667;SDS011;24099;47.102;15.440;2023-04-15T08:56:36;0.70;;;0.70;;
3667;SDS011;24099;47.102;15.440;2023-04-15T08:59:05;0.70;;;0.70;;
3667;SDS011;24099;47.102;15.440;2023-04-15T09:01:34;0.50;;;0.50;;
3667;SDS011;24099;47.102;15.440;2023-04-15T09:04:03;0.65;;;0.65;;
3667;SDS011;24099;47.102;15.440;2023-04-15T09:06:32;0.90;;;0.90;;
3667;SDS011;24099;47.102;15.440;2023-04-15T09:09:02;0.70;;;0.70;;
3667;SDS011;24099;47.102;15.440;2023-04-15T09:11:30;0.70;;;0.70;;
3667;SDS011;24099;47.102;15.440;2023-04-15T09:13:58;0.75;;;0.75;;
3667;SDS011;24099;47.102;15.440;2023-04-15T09:16:26;1.40;;;0.70;;
3667;SDS011;24099;47.102;15.440;2023-04-15T09:18:54;1.00;;;0.90;;
3667;SDS011;24099;47.102;15.440;2023-04-15T09:21:22;3.70;;;1.00;;
3667;SDS011;24099;47.102;15.440;2023-04-15T09:23:53;1.20;;;1.10;;
3667;SDS011;24099;47.102;15.440;2023-04-15T09:26:31;1.52;;;1.25;;
3667;SDS011;24099;47.102;15.440;2023-04-15T09:29:03;4.80;;;1.20;;
3667;SDS011;24099;47.102;15.440;2023-04-15T09:31:33;1.90;;;1.10;;
3667;SDS011;24099;47.102;15.440;2023-04-15T09:34:08;2.67;;;1.20;;
3667;SDS011;24099;47.102;15.440;2023-04-15T09:36:51;1.15;;;1.02;;
3667;SDS011;24099;47.102;15.440;2023-04-15T09:39:20;0.85;;;0.85;;
3667;SDS011;24099;47.102;15.440;2023-04-15T09:44:33;1.60;;;1.20;;
3667;SDS011;24099;47.102;15.440;2023-04-15T09:47:02;1.63;;;1.10;;
3667;SDS011;24099;47.102;15.440;2023-04-15T09:49:30;1.30;;;1.20;;
3667;SDS011;24099;47.102;15.440;2023-04-15T09:52:05;1.27;;;1.17;;
3667;SDS011;24099;47.102;15.440;2023-04-15T09:54:34;0.85;;;0.85;;
3667;SDS011;24099;47.102;15.440;2023-04-15T09:57:05;1.10;;;1.00;;
3667;SDS011;24099;47.102;15.440;2023-04-15T09:59:50;0.90;;;0.90;;
3667;SDS011;24099;47.102;15.440;2023-04-15T10:02:18;0.80;;;0.80;;
3667;SDS011;24099;47.102;15.440;2023-04-15T10:04:50;1.45;;;1.10;;
3667;SDS011;24099;47.102;15.440;2023-04-15T10:07:23;1.35;;;1.08;;
3667;SDS011;24099;47.102;15.440;2023-04-15T10:09:54;1.67;;;1.30;;
3667;SDS011;24099;47.102;15.440;2023-04-15T10:12:28;1.75;;;1.13;;
3667;SDS011;24099;47.102;15.440;2023-04-15T10:17:54;0.85;;;0.85;;
3667;SDS011;24099;47.102;15.440;2023-04-15T10:20:23;1.98;;;1.52;;
3667;SDS011;24099;47.102;15.440;2023-04-15T10:22:55;1.48;;;0.80;;
3667;SDS011;24099;47.102;15.440;2023-04-15T10:25:23;1.15;;;0.90;;
3667;SDS011;24099;47.102;15.440;2023-04-15T10:27:59;1.27;;;1.00;;
3667;SDS011;24099;47.102;15.440;2023-04-15T10:30:28;1.33;;;0.90;;
3667;SDS011;24099;47.102;15.440;2023-04-15T10:33:00;0.90;;;0.90;;
3667;SDS011;24099;47.102;15.440;2023-04-15T10:35:28;2.15;;;1.15;;
3667;SDS011;24099;47.102;15.440;2023-04-15T10:37:58;0.90;;;0.90;;
3667;SDS011;24099;47.102;15.440;2023-04-15T10:40:27;1.50;;;1.10;;
3667;SDS011;24099;47.102;15.440;2023-04-15T10:42:57;1.30;;;0.88;;
3667;SDS011;24099;47.102;15.440;2023-04-15T10:45:30;1.48;;;1.23;;
3667;SDS011;24099;47.102;15.440;2023-04-15T10:48:00;1.25;;;1.13;;
3667;SDS011;24099;47.102;15.440;2023-04-15T10:50:29;1.00;;;0.90;;
3667;SDS011;24099;47.102;15.440;2023-04-15T10:52:58;1.00;;;0.90;;
3667;SDS011;24099;47.102;15.440;2023-04-15T10:55:30;0.68;;;0.68;;
3667;SDS011;24099;47.102;15.440;2023-04-15T10:58:01;1.20;;;1.10;;
3667;SDS011;24099;47.102;15.440;2023-04-15T11:00:29;1.08;;;0.80;;
3667;SDS011;24099;47.102;15.440;2023-04-15T11:03:04;0.75;;;0.65;;
3667;SDS011;24099;47.102;15.440;2023-04-15T11:05:48;4.32;;;0.85;;
3667;SDS011;24099;47.102;15.440;2023-04-15T11:08:17;2.67;;;0.98;;
3667;SDS011;24099;47.102;15.440;2023-04-15T11:10:53;4.30;;;0.90;;
3667;SDS011;24099;47.102;15.440;2023-04-15T11:13:23;2.25;;;1.10;;
3667;SDS011;24099;47.102;15.440;2023-04-15T11:15:59;1.13;;;0.90;;
3667;SDS011;24099;47.102;15.440;2023-04-15T11:18:31;1.00;;;0.90;;
3667;SDS011;24099;47.102;15.440;2023-04-15T11:21:04;1.25;;;0.90;;
3667;SDS011;24099;47.102;15.440;2023-04-15T11:23:34;0.98;;;0.95;;
3667;SDS011;24099;47.102;15.440;2023-04-15T11:26:05;0.85;;;0.70;;
3667;SDS011;24099;47.102;15.440;2023-04-15T11:28:39;1.27;;;1.00;;
3667;SDS011;24099;47.102;15.440;2023-04-15T11:31:08;2.20;;;1.20;;
3667;SDS011;24099;47.102;15.440;2023-04-15T11:33:52;1.83;;;0.98;;
3667;SDS011;24099;47.102;15.440;2023-04-15T11:36:25;1.00;;;0.90;;
3667;SDS011;24099;47.102;15.440;2023-04-15T11:38:56;1.15;;;1.13;;
3667;SDS011;24099;47.102;15.440;2023-04-15T11:41:24;1.08;;;0.95;;
3667;SDS011;24099;47.102;15.440;2023-04-15T11:43:55;1.05;;;0.95;;
3667;SDS011;24099;47.102;15.440;2023-04-15T11:46:27;2.78;;;1.10;;
3667;SDS011;24099;47.102;15.440;2023-04-15T11:48:56;1.00;;;0.90;;
3667;SDS011;24099;47.102;15.440;2023-04-15T11:51:24;1.02;;;0.93;;
3667;SDS011;24099;47.102;15.440;2023-04-15T11:53:52;0.90;;;0.90;;
3667;SDS011;24099;47.102;15.440;2023-04-15T11:56:22;1.05;;;0.95;;
3667;SDS011;24099;47.102;15.440;2023-04-15T11:58:52;0.90;;;0.85;;
3667;SDS011;24099;47.102;15.440;2023-04-15T12:01:29;0.98;;;0.70;;
3667;SDS011;24099;47.102;15.440;2023-04-15T12:04:14;1.27;;;1.05;;
3667;SDS011;24099;47.102;15.440;2023-04-15T12:06:44;0.70;;;0.70;;
3667;SDS011;24099;47.102;15.440;2023-04-15T12:09:13;2.25;;;1.02;;
3667;SDS011;24099;47.102;15.440;2023-04-15T12:11:42;0.80;;;0.80;;
3667;SDS011;24099;47.102;15.440;2023-04-15T12:14:14;0.70;;;0.70;;
3667;SDS011;24099;47.102;15.440;2023-04-15T12:16:46;2.72;;;0.93;;
3667;SDS011;24099;47.102;15.440;2023-04-15T12:19:17;1.27;;;0.82;;
3667;SDS011;24099;47.102;15.440;2023-04-15T12:21:49;0.65;;;0.65;;
3667;SDS011;24099;47.102;15.440;2023-04-15T12:24:19;0.82;;;0.70;;
3667;SDS011;24099;47.102;15.440;2023-04-15T12:26:49;0.88;;;0.88;;
3667;SDS011;24099;47.102;15.440;2023-04-15T12:29:23;1.20;;;0.80;;
3667;SDS011;24099;47.102;15.440;2023-04-15T12:32:03;0.80;;;0.80;;
3667;SDS011;24099;47.102;15.440;2023-04-15T12:34:37;0.80;;;0.80;;
3667;SDS011;24099;47.102;15.440;2023-04-15T12:37:08;0.80;;;0.70;;
3667;SDS011;24099;47.102;15.440;2023-04-15T12:39:38;1.35;;;1.00;;
3667;SDS011;24099;47.102;15.440;2023-04-15T12:42:08;1.38;;;0.90;;
3667;SDS011;24099;47.102;15.440;2023-04-15T12:44:36;2.78;;;1.00;;
3667;SDS011;24099;47.102;15.440;2023-04-15T12:47:08;1.02;;;0.90;;
3667;SDS011;24099;47.102;15.440;2023-04-15T12:49:40;0.90;;;0.80;;
3667;SDS011;24099;47.102;15.440;2023-04-15T12:52:10;2.33;;;0.88;;
3667;SDS011;24099;47.102;15.440;2023-04-15T12:54:44;1.23;;;1.00;;
3667;SDS011;24099;47.102;15.440;2023-04-15T12:57:12;4.40;;;1.30;;
3667;SDS011;24099;47.102;15.440;2023-04-15T12:59:43;0.80;;;0.80;;
3667;SDS011;24099;47.102;15.440;2023-04-15T13:02:11;0.73;;;0.73;;
3667;SDS011;24099;47.102;15.440;2023-04-15T13:04:42;1.80;;;0.80;;
3667;SDS011;24099;47.102;15.440;2023-04-15T13:07:15;0.98;;;0.80;;
3667;SDS011;24099;47.102;15.440;2023-04-15T13:09:43;0.80;;;0.80;;
3667;SDS011;24099;47.102;15.440;2023-04-15T13:12:14;1.50;;;1.40;;
3667;SDS011;24099;47.102;15.440;2023-04-15T13:14:42;0.88;;;0.75;;
3667;SDS011;24099;47.102;15.440;2023-04-15T13:17:10;1.05;;;0.70;;
3667;SDS011;24099;47.102;15.440;2023-04-15T13:19:38;0.75;;;0.75;;
3667;SDS011;24099;47.102;15.440;2023-04-15T13:22:10;1.13;;;0.70;;
3667;SDS011;24099;47.102;15.440;2023-04-15T13:24:40;0.75;;;0.75;;
3667;SDS011;24099;47.102;15.440;2023-04-15T13:27:16;1.95;;;1.45;;
3667;SDS011;24099;47.102;15.440;2023-04-15T13:29:45;1.77;;;1.27;;
3667;SDS011;24099;47.102;15.440;2023-04-15T13:32:13;2.72;;;0.85;;
3667;SDS011;24099;47.102;15.440;2023-04-15T13:34:40;0.80;;;0.80;;
3667;SDS011;24099;47.102;15.440;2023-04-15T13:37:12;2.22;;;1.00;;
3667;SDS011;24099;47.102;15.440;2023-04-15T13:39:43;0.57;;;0.57;;
3667;SDS011;24099;47.102;15.440;2023-04-15T13:42:11;1.20;;;0.80;;
3667;SDS011;24099;47.102;15.440;2023-04-15T13:44:45;0.60;;;0.60;;
3667;SDS011;24099;47.102;15.440;2023-04-15T13:47:13;0.93;;;0.80;;
3667;SDS011;24099;47.102;15.440;2023-04-15T13:49:47;8.23;;;4.03;;
3667;SDS011;24099;47.102;15.440;2023-04-15T13:52:16;6.07;;;3.88;;
3667;SDS011;24099;47.102;15.440;2023-04-15T13:54:46;2.95;;;1.95;;
3667;SDS011;24099;47.102;15.440;2023-04-15T13:57:14;1.83;;;1.20;;
3667;SDS011;24099;47.102;15.440;2023-04-15T13:59:41;2.28;;;0.85;;
3667;SDS011;24099;47.102;15.440;2023-04-15T14:02:09;0.68;;;0.68;;
3667;SDS011;24099;47.102;15.440;2023-04-15T14:04:44;1.85;;;1.05;;
3667;SDS011;24099;47.102;15.440;2023-04-15T14:07:12;1.20;;;0.90;;
3667;SDS011;24099;47.102;15.440;2023-04-15T14:09:42;1.45;;;0.90;;
3667;SDS011;24099;47.102;15.440;2023-04-15T14:12:10;0.50;;;0.50;;
3667;SDS011;24099;47.102;15.440;2023-04-15T14:14:38;1.27;;;0.75;;
3667;SDS011;24099;47.102;15.440;2023-04-15T14:17:06;0.50;;;0.47;;
3667;SDS011;24099;47.102;15.440;2023-04-15T14:19:37;1.17;;;0.80;;
3667;SDS011;24099;47.102;15.440;2023-04-15T14:22:04;3.20;;;1.33;;
3667;SDS011;24099;47.102;15.440;2023-04-15T14:24:32;0.73;;;0.60;;
3667;SDS011;24099;47.102;15.440;2023-04-15T14:27:01;1.17;;;0.93;;
3667;SDS011;24099;47.102;15.440;2023-04-15T14:29:29;1.10;;;0.90;;
3667;SDS011;24099;47.102;15.440;2023-04-15T14:31:57;1.02;;;0.80;;
3667;SDS011;24099;47.102;15.440;2023-04-15T14:34:25;1.85;;;1.35;;
3667;SDS011;24099;47.102;15.440;2023-04-15T14:36:53;1.25;;;0.82;;
3667;SDS011;24099;47.102;15.440;2023-04-15T14:39:21;0.60;;;0.60;;
3667;SDS011;24099;47.102;15.440;2023-04-15T14:41:48;0.63;;;0.57;;
3667;SDS011;24099;47.102;15.440;2023-04-15T14:44:17;0.70;;;0.70;;
3667;SDS011;24099;47.102;15.440;2023-04-15T14:46:56;1.48;;;0.80;;
3667;SDS011;24099;47.102;15.440;2023-04-15T14:49:24;1.10;;;0.82;;
3667;SDS011;24099;47.102;15.440;2023-04-15T14:51:52;0.60;;;0.60;;
3667;SDS011;24099;47.102;15.440;2023-04-15T14:54:20;0.73;;;0.70;;
3667;SDS011;24099;47.102;15.440;2023-04-15T14:56:51;1.88;;;0.75;;
3667;SDS011;24099;47.102;15.440;2023-04-15T14:59:20;0.98;;;0.80;;
3667;SDS011;24099;47.102;15.440;2023-04-15T15:01:48;2.58;;;0.70;;
3667;SDS011;24099;47.102;15.440;2023-04-15T15:04:16;0.65;;;0.65;;
3667;SDS011;24099;47.102;15.440;2023-04-15T15:06:44;0.60;;;0.60;;
3667;SDS011;24099;47.102;15.440;2023-04-15T15:09:12;1.17;;;0.80;;
3667;SDS011;24099;47.102;15.440;2023-04-15T15:11:40;0.63;;;0.60;;